KPSP/PSP METAR and TAF weather

Enter ICAO airport designator
Station Type Date Time Source
KPSP METAR 2022/08/13 11:53 UTC NOAA

KPSP 131153Z AUTO 24003KT 10SM CLR 29/19 A2993 RMK AO2 SLP129 T02940194 10372 20289 58006


Station Type Date Time Source
KPSP Decoded METAR 2022/08/13 11:53 UTC NOAA

PALM SPRINGS REGIONAL AIRPORT , CA, United States (KPSP) 33-50N 116-30W 135M
Aug 13, 2022 - 07:53 AM EDT / 2022.08.13 1153 UTC
Wind: from the WSW (240 degrees) at 3 MPH (3 KT):0
Visibility: 10 mile(s):0
Sky conditions: clear
Temperature: 84.9 F (29.4 C)
Dew Point: 66.9 F (19.4 C)
Relative Humidity: 54%
Pressure (altimeter): 29.93 in. Hg (1013 hPa)
Pressure tendency: 0.02 inches (0.6 hPa) lower than three hours ago
ob: KPSP 131153Z AUTO 24003KT 10SM CLR 29/19 A2993 RMK AO2 SLP129 T02940194 10372 20289 58006
cycle: 12

Station Type Date Time Source
KPSP TAF 2022/08/13 12:28 UTC NOAA

TAF KPSP 131125Z 1312/1412 VRB04KT P6SM BKN150
FM131900 11009KT P6SM SCT080 BKN150
FM140300 31007KT P6SM BKN150
FM140700 VRB04KT P6SM BKN150

Example: see airport list